Aérodrome :
LOGIN :

S'inscrire | Disclaimer

   EN    FR    IT 

 










Légende :    VFR   VFR Marginal   IFR   IFR Intensif   IFR Très Intensif
Visi : 
Plafond : 
>= 8 km
>= 3000ft
5 à 8 km
1000 à 3000 ft
1500m à 5 km
500 à 1000 ft
800 à 1500m
200 à 500 ft
< 800m
< 200 ft
Symboles :   Orages  Brouillard  Fortes neiges  Fortes précipitations  Vent > 20 kt
SIGMETs :   Divers  Orages  Givrage  Turbulence  Onde Orograph.  Cendres Volcan.






- Altitude de l'aérodrome : 364 ft
- Code IATA : FRA


EDDF - Frankfurt Int.

DERNIER METAR :
  • 301650Z 20008KT CAVOK 31/11 Q1008 NOSIG

METARs EXPIRÉS :
  • 301620Z 16007KT 090V200 CAVOK 32/11 Q1008 NOSIG
  • 301550Z 15006KT 100V220 CAVOK 32/12 Q1008 NOSIG
  • 301520Z 21006KT 130V270 CAVOK 32/12 Q1008 NOSIG
  • 301450Z 14007KT 090V190 CAVOK 32/13 Q1009 NOSIG

TAF TAF EDDF
Valide du 30 à 12h jusqu'au 01 à 18h UTC


301100Z 3012/0118 14005KT CAVOK
BECMG 3013/3015 21008KT
PROB40
TEMPO 3018/3021 30025G40KT 1000 +TSRA BKN013 BKN040CB
TEMPO 3021/0101 30015G30KT TSRA BKN040CB
TEMPO 0101/0107 4500 -RA BKN035



MET'MAP, la Météo Aéronautique d'un coup d'oeil ! - Copyright ORBIFLY Décembre 2007 - Disclaimer

ORBIFLY MET'MAP TEAM :

Programmation & Développement : Alexandra Zaïnal
Sur une idée originale de : Baudouin d'Aumeries
Soutien technique & logistique : Manuel Goepfert
Assistance : Marc-Olivier Méhu




SOURCES & CREDITS :

   NOAA